Time;durP1;ratioP1;P1;durP2;ratioP2;P2;SDS_P1;SDS_P2;PMS_P1;PMS_P2;Temp;Humidity;BMP_temperature;BMP_pressure;BME280_temperature;BME280_humidity;BME280_pressure;Samples;Min_cycle;Max_cycle;Signal;HPM_P1;HPM_P2
2022/09/26 00:01:58;;;;;;;17.50;7.10;;;12.60;99.90;;;;;;5053012;28;20485;-52
2022/09/26 00:04:27;;;;;;;14.63;7.13;;;12.50;99.90;;;;;;5052712;28;20800;-52
2022/09/26 00:06:55;;;;;;;13.87;6.40;;;12.50;99.90;;;;;;5053020;28;20409;-53
2022/09/26 00:09:22;;;;;;;14.07;6.82;;;12.40;99.90;;;;;;5053000;28;20424;-52
2022/09/26 00:11:48;;;;;;;14.73;6.80;;;12.30;99.90;;;;;;5052228;28;20381;-52
2022/09/26 00:14:17;;;;;;;14.13;6.50;;;12.30;99.90;;;;;;5052415;28;20401;-52
2022/09/26 00:16:43;;;;;;;15.73;7.03;;;12.20;99.90;;;;;;5051715;28;20425;-52
2022/09/26 00:19:09;;;;;;;14.97;7.00;;;12.20;99.90;;;;;;5052776;28;20786;-52
2022/09/26 00:21:35;;;;;;;13.98;6.47;;;12.10;99.90;;;;;;5051482;28;20746;-53
2022/09/26 00:24:02;;;;;;;15.00;7.90;;;12.00;99.90;;;;;;5052220;28;20382;-52
2022/09/26 00:26:29;;;;;;;15.18;6.90;;;11.80;99.90;;;;;;5051862;28;20472;-53
2022/09/26 00:28:56;;;;;;;13.23;6.35;;;11.70;99.90;;;;;;5052134;28;20473;-52
2022/09/26 00:31:25;;;;;;;18.20;6.70;;;11.70;99.90;;;;;;5052477;28;20393;-52
2022/09/26 00:33:51;;;;;;;12.97;6.47;;;11.60;99.90;;;;;;5052383;28;20809;-52
2022/09/26 00:36:17;;;;;;;13.27;6.45;;;11.50;99.90;;;;;;5052477;28;20492;-52
2022/09/26 00:38:44;;;;;;;14.30;7.10;;;11.60;99.90;;;;;;5051510;28;20400;-52
2022/09/26 00:41:10;;;;;;;16.50;6.63;;;11.60;99.90;;;;;;5052678;28;20861;-52
2022/09/26 00:43:43;;;;;;;16.67;7.43;;;11.60;99.90;;;;;;5051314;28;20386;-52
2022/09/26 00:46:27;;;;;;;16.90;8.17;;;11.60;99.90;;;;;;5051897;28;20874;-52
2022/09/26 00:49:22;;;;;;;14.63;7.22;;;11.50;99.90;;;;;;5052247;28;20473;-52
2022/09/26 00:51:58;;;;;;;14.52;7.43;;;11.30;99.90;;;;;;5051439;28;20373;-52
2022/09/26 00:54:27;;;;;;;15.88;7.00;;;11.20;99.90;;;;;;5051807;28;20417;-52
2022/09/26 00:56:55;;;;;;;14.13;7.35;;;11.30;99.90;;;;;;5052161;28;20469;-52
2022/09/26 00:59:28;;;;;;;14.23;7.95;;;11.20;99.90;;;;;;5051714;28;20755;-52
2022/09/26 01:01:56;;;;;;;15.38;7.50;;;11.40;99.90;;;;;;5051798;28;20429;-52
2022/09/26 01:04:24;;;;;;;15.38;7.30;;;11.10;99.90;;;;;;5051841;28;20381;-52
2022/09/26 01:06:50;;;;;;;16.48;7.72;;;11.00;99.90;;;;;;5051459;28;20381;-52
2022/09/26 01:09:18;;;;;;;14.60;7.87;;;11.00;99.90;;;;;;5051674;28;20384;-52
2022/09/26 01:11:44;;;;;;;17.45;7.80;;;11.00;99.90;;;;;;5050875;28;20432;-52
2022/09/26 01:14:11;;;;;;;14.77;7.88;;;11.00;99.90;;;;;;5051777;28;20415;-52
2022/09/26 01:16:38;;;;;;;16.90;8.10;;;11.10;99.90;;;;;;5050965;28;20854;-52
2022/09/26 01:19:24;;;;;;;17.05;7.93;;;11.00;99.90;;;;;;5051310;28;20389;-52
2022/09/26 01:22:16;;;;;;;15.05;8.20;;;10.90;99.90;;;;;;5051023;28;20376;-52
2022/09/26 01:24:59;;;;;;;17.55;9.05;;;10.80;99.90;;;;;;5050831;28;20397;-52
2022/09/26 01:27:46;;;;;;;16.37;8.97;;;10.90;99.90;;;;;;5050935;28;20475;-52
2022/09/26 01:30:20;;;;;;;17.70;8.20;;;10.90;99.90;;;;;;5051386;28;20467;-52
2022/09/26 01:33:16;;;;;;;16.73;8.27;;;10.80;99.90;;;;;;5050656;28;20839;-54
2022/09/26 01:36:02;;;;;;;18.80;8.13;;;10.70;99.90;;;;;;5050462;28;20428;-54
2022/09/26 01:38:50;;;;;;;15.25;8.25;;;10.60;99.90;;;;;;5050820;28;20377;-55
2022/09/26 01:41:33;;;;;;;16.23;8.60;;;10.60;99.90;;;;;;5050804;28;20460;-54
2022/09/26 01:44:29;;;;;;;14.75;7.60;;;10.60;99.90;;;;;;5051314;28;20374;-54
2022/09/26 01:47:12;;;;;;;16.25;7.78;;;10.50;99.90;;;;;;5050852;28;20396;-54
2022/09/26 01:49:43;;;;;;;21.10;8.77;;;10.50;99.90;;;;;;5049450;28;20401;-54
2022/09/26 01:52:30;;;;;;;16.30;8.43;;;10.50;99.90;;;;;;5050373;28;20435;-54
2022/09/26 01:55:11;;;;;;;16.20;8.02;;;10.50;99.90;;;;;;5050571;28;20488;-54
2022/09/26 01:57:50;;;;;;;15.82;8.10;;;10.50;99.90;;;;;;5031657;28;20381;-54
2022/09/26 02:00:17;;;;;;;17.25;8.57;;;10.60;99.90;;;;;;5050826;28;20850;-54
2022/09/26 02:02:46;;;;;;;17.05;8.63;;;10.60;99.90;;;;;;5050081;28;20521;-54
2022/09/26 02:05:23;;;;;;;18.85;8.77;;;10.70;99.90;;;;;;5050782;28;20405;-54
2022/09/26 02:07:56;;;;;;;16.83;8.20;;;10.80;99.90;;;;;;5049925;28;20388;-54
2022/09/26 02:10:29;;;;;;;15.45;8.25;;;10.90;99.90;;;;;;5050677;28;20397;-54
2022/09/26 02:13:03;;;;;;;16.80;7.88;;;11.00;99.90;;;;;;5050031;28;20373;-54
2022/09/26 02:15:33;;;;;;;16.50;9.20;;;10.90;99.90;;;;;;5049921;28;20414;-55
2022/09/26 02:18:38;;;;;;;18.75;8.75;;;10.90;99.90;;;;;;5050587;28;20499;-54
2022/09/26 02:21:21;;;;;;;16.42;8.10;;;11.00;99.90;;;;;;5032443;28;20463;-54
2022/09/26 02:23:48;;;;;;;17.42;8.10;;;11.00;99.90;;;;;;5049891;28;20456;-52
2022/09/26 02:26:14;;;;;;;16.65;8.95;;;11.10;99.90;;;;;;5050101;28;20743;-52
2022/09/26 02:28:40;;;;;;;15.83;8.33;;;11.10;99.90;;;;;;5049443;28;20419;-53
2022/09/26 02:31:07;;;;;;;19.27;8.73;;;11.10;99.90;;;;;;5050311;28;20484;-53
2022/09/26 02:33:34;;;;;;;14.93;8.00;;;11.10;99.90;;;;;;5049502;28;20384;-53
2022/09/26 02:36:02;;;;;;;17.75;9.02;;;11.10;99.90;;;;;;5050434;28;20491;-52
2022/09/26 02:38:30;;;;;;;16.63;8.80;;;11.10;99.90;;;;;;5049653;28;20435;-54
2022/09/26 02:41:29;;;;;;;17.20;8.20;;;11.10;99.90;;;;;;5049849;28;20751;-53
2022/09/26 02:44:07;;;;;;;16.80;8.03;;;11.20;99.90;;;;;;5050080;28;20439;-53
2022/09/26 02:46:42;;;;;;;17.20;8.05;;;11.20;99.90;;;;;;5049367;28;20390;-53
2022/09/26 02:49:20;;;;;;;15.82;8.25;;;11.20;99.90;;;;;;5049977;28;20388;-52
2022/09/26 02:52:11;;;;;;;19.90;9.00;;;11.10;99.90;;;;;;5049169;28;20389;-53
2022/09/26 02:55:07;;;;;;;18.35;8.82;;;11.10;99.90;;;;;;5049103;28;20490;-52
2022/09/26 02:57:51;;;;;;;19.10;8.68;;;11.10;99.90;;;;;;5049008;28;20417;-53
2022/09/26 03:00:21;;;;;;;17.60;8.60;;;11.20;99.90;;;;;;5049545;28;20398;-52
2022/09/26 03:03:06;;;;;;;20.15;9.13;;;11.20;99.90;;;;;;5049009;28;20450;-52
2022/09/26 03:05:35;;;;;;;17.13;8.23;;;11.10;99.90;;;;;;5048979;28;20478;-52
2022/09/26 03:08:04;;;;;;;15.50;7.75;;;11.10;99.90;;;;;;5049471;28;20374;-52
2022/09/26 03:10:31;;;;;;;14.90;7.78;;;11.00;99.90;;;;;;5048976;28;20386;-53
2022/09/26 03:13:07;;;;;;;16.38;8.27;;;11.10;99.90;;;;;;5049486;28;20393;-52
2022/09/26 03:15:35;;;;;;;14.43;7.70;;;11.20;99.90;;;;;;5048886;28;20918;-52
2022/09/26 03:18:04;;;;;;;18.60;8.00;;;11.10;99.90;;;;;;5049764;28;20464;-52
2022/09/26 03:20:29;;;;;;;14.13;7.25;;;11.00;99.90;;;;;;5048851;28;20378;-53
2022/09/26 03:22:55;;;;;;;19.97;8.00;;;11.00;99.90;;;;;;5049689;28;20731;-52
2022/09/26 03:25:24;;;;;;;15.57;7.80;;;10.90;99.90;;;;;;5050825;28;20452;-52
2022/09/26 03:27:51;;;;;;;14.25;7.30;;;10.90;99.90;;;;;;5052802;28;20373;-52
2022/09/26 03:30:18;;;;;;;14.37;7.00;;;10.90;99.90;;;;;;5053515;28;20409;-52
2022/09/26 03:32:44;;;;;;;17.23;6.95;;;10.90;99.90;;;;;;5052865;28;20382;-52
2022/09/26 03:35:10;;;;;;;15.65;6.30;;;10.80;99.90;;;;;;5053163;28;20435;-52
2022/09/26 03:37:36;;;;;;;12.87;6.10;;;10.80;99.90;;;;;;5052854;28;20400;-52
2022/09/26 03:40:08;;;;;;;16.05;6.30;;;10.80;99.90;;;;;;5053434;28;20466;-52
2022/09/26 03:42:34;;;;;;;10.27;5.93;;;10.90;99.90;;;;;;5052824;28;20427;-52
2022/09/26 03:45:01;;;;;;;15.82;6.00;;;10.90;99.90;;;;;;5053565;28;20471;-52
2022/09/26 03:47:27;;;;;;;14.80;6.30;;;10.90;99.90;;;;;;5053039;28;20778;-53
2022/09/26 03:49:53;;;;;;;10.60;5.50;;;11.00;99.90;;;;;;5053028;28;20460;-52
2022/09/26 03:52:19;;;;;;;14.50;6.10;;;11.00;99.90;;;;;;5053320;28;20385;-52
2022/09/26 03:54:45;;;;;;;10.65;5.53;;;11.00;99.90;;;;;;5052353;28;20405;-52
2022/09/26 03:57:15;;;;;;;13.50;6.22;;;11.10;99.90;;;;;;5053284;28;20925;-52
2022/09/26 03:59:41;;;;;;;12.40;6.25;;;11.10;99.90;;;;;;5052339;28;20789;-52
2022/09/26 04:02:07;;;;;;;13.10;5.70;;;11.10;99.90;;;;;;5059888;28;20474;-52
2022/09/26 04:04:32;;;;;;;13.30;6.20;;;11.20;99.90;;;;;;5082488;28;20417;-53
2022/09/26 04:06:59;;;;;;;12.80;5.13;;;11.10;99.90;;;;;;5093278;28;20470;-52
2022/09/26 04:09:25;;;;;;;11.88;6.10;;;11.00;99.90;;;;;;5082996;28;20904;-52
2022/09/26 04:11:52;;;;;;;11.77;5.82;;;10.90;99.90;;;;;;5058532;28;20377;-52
2022/09/26 04:14:18;;;;;;;10.85;5.30;;;10.80;99.90;;;;;;5053018;28;20406;-52
2022/09/26 04:16:45;;;;;;;10.32;4.90;;;10.80;99.90;;;;;;5050631;28;20409;-52
2022/09/26 04:19:11;;;;;;;10.10;5.15;;;10.80;99.90;;;;;;5068568;28;20888;-52
2022/09/26 04:21:39;;;;;;;11.95;5.60;;;10.60;99.90;;;;;;5064307;28;20397;-52
2022/09/26 04:24:06;;;;;;;14.20;5.10;;;10.60;99.90;;;;;;5052202;28;20842;-52
2022/09/26 04:26:31;;;;;;;10.02;4.82;;;10.50;99.90;;;;;;5051480;28;20397;-53
2022/09/26 04:28:57;;;;;;;14.77;5.50;;;10.50;99.90;;;;;;5052050;28;20779;-52
2022/09/26 04:31:26;;;;;;;10.30;5.00;;;10.50;99.90;;;;;;5052213;28;20468;-56
2022/09/26 04:33:55;;;;;;;10.85;5.60;;;10.50;99.90;;;;;;5051292;28;20402;-55
2022/09/26 04:36:22;;;;;;;10.27;5.20;;;10.50;99.90;;;;;;5071023;28;20388;-55
2022/09/26 04:38:47;;;;;;;12.48;5.50;;;10.40;99.90;;;;;;5052775;28;21322;-55
2022/09/26 04:41:16;;;;;;;10.70;4.93;;;10.40;99.90;;;;;;5052178;28;20455;-54
2022/09/26 04:43:41;;;;;;;10.30;4.95;;;10.40;99.90;;;;;;5052995;28;20475;-55
2022/09/26 04:46:12;;;;;;;11.98;5.60;;;10.40;99.90;;;;;;5068286;28;20886;-54
2022/09/26 04:48:38;;;;;;;11.95;5.00;;;10.30;99.90;;;;;;5058841;28;20409;-55
2022/09/26 04:51:14;;;;;;;11.45;5.45;;;10.30;99.90;;;;;;5060757;28;20517;-55
2022/09/26 04:53:40;;;;;;;11.70;4.75;;;10.40;99.90;;;;;;5053832;28;20971;-55
2022/09/26 04:56:11;;;;;;;12.77;5.50;;;10.30;99.90;;;;;;5051218;28;20385;-54
2022/09/26 04:58:37;;;;;;;11.50;4.97;;;10.30;99.90;;;;;;5051460;28;20408;-55
2022/09/26 05:01:16;;;;;;;13.73;5.00;;;10.30;99.90;;;;;;5062166;28;20498;-55
2022/09/26 05:03:41;;;;;;;12.52;5.70;;;10.30;99.90;;;;;;5063913;28;20398;-55
2022/09/26 05:06:09;;;;;;;11.97;5.07;;;10.20;99.90;;;;;;5071179;28;20384;-55
2022/09/26 05:08:36;;;;;;;11.40;5.35;;;10.20;99.90;;;;;;5070709;28;20706;-55
2022/09/26 05:11:02;;;;;;;11.45;5.00;;;10.20;99.90;;;;;;5071784;28;20407;-54
2022/09/26 05:13:28;;;;;;;12.02;5.40;;;10.10;99.90;;;;;;5071402;28;20430;-54
2022/09/26 05:15:54;;;;;;;12.23;5.57;;;10.10;99.90;;;;;;5066884;28;20412;-55
2022/09/26 05:18:23;;;;;;;14.05;5.55;;;10.10;99.90;;;;;;5067710;28;20816;-54
2022/09/26 05:20:49;;;;;;;11.50;5.40;;;9.90;99.90;;;;;;5064258;28;20460;-54
2022/09/26 05:26:18;;;;;;;11.15;5.00;;;9.90;99.90;;;;;;5064136;28;20462;-54
2022/09/26 05:26:19;;;;;;;11.45;4.97;;;9.80;99.90;;;;;;5068869;28;20410;-54
2022/09/26 05:29:05;;;;;;;10.90;4.90;;;9.80;99.90;;;;;;5060986;28;20405;-55
2022/09/26 05:31:38;;;;;;;11.13;4.70;;;9.70;99.90;;;;;;5051358;28;20460;-55
2022/09/26 05:34:06;;;;;;;11.60;4.53;;;9.70;99.90;;;;;;5063367;28;20871;-55
2022/09/26 05:36:32;;;;;;;12.10;5.40;;;9.70;99.90;;;;;;5062752;28;20457;-55
2022/09/26 05:38:57;;;;;;;10.80;4.38;;;9.70;99.90;;;;;;5067777;28;20413;-55
2022/09/26 05:41:30;;;;;;;11.30;5.40;;;9.70;99.90;;;;;;5071129;28;20714;-55
2022/09/26 05:43:56;;;;;;;11.13;5.30;;;9.90;99.90;;;;;;5070513;28;20388;-55
2022/09/26 05:46:22;;;;;;;12.33;5.10;;;10.00;99.90;;;;;;5069114;28;20883;-54
2022/09/26 05:48:47;;;;;;;11.85;4.70;;;10.10;99.90;;;;;;5069260;28;20376;-52
2022/09/26 05:51:19;;;;;;;12.07;4.90;;;10.20;99.90;;;;;;5071090;28;20391;-54
2022/09/26 05:53:46;;;;;;;10.63;3.90;;;10.40;99.90;;;;;;5070151;28;20856;-55
2022/09/26 05:56:13;;;;;;;8.63;3.90;;;10.60;99.90;;;;;;5063965;28;20389;-52
2022/09/26 05:58:39;;;;;;;9.02;4.22;;;10.90;99.90;;;;;;5069197;28;20860;-52
2022/09/26 06:01:11;;;;;;;9.57;4.00;;;11.30;99.90;;;;;;5063241;28;20391;-52
2022/09/26 06:03:37;;;;;;;9.93;4.40;;;11.80;99.90;;;;;;5051898;28;20478;-53
2022/09/26 06:06:07;;;;;;;8.80;4.00;;;12.30;23.20;;;;;;5065196;28;20420;-53
2022/09/26 06:08:34;;;;;;;9.25;4.10;;;12.90;1.00;;;;;;5068172;28;20388;-53
2022/09/26 06:11:12;;;;;;;9.00;3.70;;;13.50;1.00;;;;;;5069597;28;20395;-53
2022/09/26 06:13:39;;;;;;;7.90;3.20;;;14.10;99.90;;;;;;5069244;28;20529;-53
2022/09/26 06:16:07;;;;;;;8.32;3.50;;;15.00;1.00;;;;;;5067352;28;20466;-53
2022/09/26 06:18:37;;;;;;;8.67;3.50;;;14.90;1.00;;;;;;5069490;28;20873;-53
2022/09/26 06:21:08;;;;;;;10.80;3.97;;;14.60;1.00;;;;;;5067211;28;20396;-53
2022/09/26 06:23:34;;;;;;;9.07;3.63;;;14.20;99.90;;;;;;5069083;28;20424;-53
2022/09/26 06:26:02;;;;;;;12.82;4.82;;;13.90;1.00;;;;;;5067743;28;20400;-52
2022/09/26 06:28:29;;;;;;;15.47;6.60;;;13.60;99.90;;;;;;5069309;28;20388;-52
2022/09/26 06:30:55;;;;;;;13.68;5.72;;;13.30;99.90;;;;;;5069281;28;20487;-52
2022/09/26 06:33:21;;;;;;;10.48;4.28;;;13.20;1.00;;;;;;5050162;28;20741;-52
2022/09/26 06:35:47;;;;;;;12.45;5.15;;;13.10;99.90;;;;;;5061924;28;20889;-53
2022/09/26 06:38:14;;;;;;;10.43;4.57;;;13.10;99.90;;;;;;5048489;28;20528;-52
2022/09/26 06:40:40;;;;;;;11.13;5.00;;;13.00;1.00;;;;;;5048569;28;20484;-52
2022/09/26 06:43:05;;;;;;;10.10;4.50;;;13.10;1.00;;;;;;5049600;28;20868;-52
2022/09/26 06:45:31;;;;;;;11.73;4.00;;;13.30;1.00;;;;;;5049506;28;20486;-52
2022/09/26 06:48:00;;;;;;;10.00;3.95;;;13.50;99.90;;;;;;5049621;28;20475;-52
2022/09/26 06:50:25;;;;;;;11.20;3.80;;;13.80;99.10;;;;;;5049993;28;20719;-52
2022/09/26 06:52:51;;;;;;;11.25;4.00;;;14.30;99.90;;;;;;5048854;28;20374;-52
2022/09/26 06:55:16;;;;;;;9.60;3.60;;;14.50;99.90;;;;;;5049553;28;20404;-53
2022/09/26 06:57:42;;;;;;;8.63;4.10;;;14.50;99.90;;;;;;5048834;28;20389;-53
2022/09/26 07:00:10;;;;;;;9.32;3.60;;;14.40;99.90;;;;;;5049374;28;20743;-53
2022/09/26 07:02:36;;;;;;;8.95;3.55;;;14.20;99.90;;;;;;5048697;28;20476;-53
2022/09/26 07:05:04;;;;;;;7.60;3.40;;;14.20;99.90;;;;;;5049756;28;20858;-53
2022/09/26 07:07:31;;;;;;;9.93;3.40;;;14.20;99.90;;;;;;5049312;28;20483;-54
2022/09/26 07:09:56;;;;;;;8.52;3.10;;;14.00;1.00;;;;;;5049489;28;20889;-53
2022/09/26 07:12:23;;;;;;;8.70;3.30;;;14.00;1.00;;;;;;5049534;28;20397;-53
2022/09/26 07:14:50;;;;;;;8.05;3.13;;;13.90;99.90;;;;;;5046644;28;20920;-53
2022/09/26 07:17:17;;;;;;;9.33;3.40;;;13.50;99.90;;;;;;5069141;28;20477;-53
2022/09/26 07:19:43;;;;;;;7.40;3.20;;;13.40;99.90;;;;;;5068909;28;20405;-53
2022/09/26 07:22:09;;;;;;;8.03;3.17;;;13.50;99.90;;;;;;5068769;28;20388;-53
2022/09/26 07:24:35;;;;;;;10.27;3.10;;;13.60;91.20;;;;;;5068649;28;20757;-53
2022/09/26 07:27:01;;;;;;;7.85;3.53;;;13.30;1.00;;;;;;5069456;28;20376;-53
2022/09/26 07:29:28;;;;;;;10.18;3.40;;;13.40;99.90;;;;;;5068925;28;20518;-53
2022/09/26 07:31:54;;;;;;;8.60;3.22;;;13.60;99.90;;;;;;5068473;28;20476;-53
2022/09/26 07:34:23;;;;;;;7.15;3.00;;;14.10;99.90;;;;;;5069382;28;20845;-53
2022/09/26 07:36:50;;;;;;;11.13;3.40;;;14.80;99.90;;;;;;5068390;28;20422;-53
2022/09/26 07:39:16;;;;;;;8.93;3.03;;;15.00;99.90;;;;;;5069301;28;20379;-53
2022/09/26 07:41:43;;;;;;;7.03;2.73;;;15.00;1.00;;;;;;5050533;28;20387;-53
2022/09/26 07:44:09;;;;;;;8.80;2.85;;;15.30;99.90;;;;;;5069081;28;20875;-56
2022/09/26 07:52:02;;;;;;;7.18;3.00;;;15.20;1.00;;;;;;5067500;28;20481;-53
2022/09/26 07:54:28;;;;;;;9.60;3.55;;;15.00;1.00;;;;;;5069102;28;20407;-53
2022/09/26 07:56:54;;;;;;;8.67;2.87;;;14.70;1.00;;;;;;5068597;28;20392;-53
2022/09/26 07:59:21;;;;;;;7.77;2.77;;;14.70;1.00;;;;;;5069042;28;20388;-54
2022/09/26 08:01:47;;;;;;;8.40;2.88;;;14.60;99.90;;;;;;5068348;28;20392;-53
2022/09/26 08:04:14;;;;;;;7.67;3.10;;;14.60;1.00;;;;;;5069301;28;20388;-53
2022/09/26 08:06:40;;;;;;;8.98;2.80;;;14.70;1.00;;;;;;5068275;28;20376;-53
2022/09/26 08:09:06;;;;;;;7.50;2.63;;;15.10;1.00;;;;;;5068843;28;20868;-53
2022/09/26 08:11:32;;;;;;;6.70;2.70;;;15.40;1.00;;;;;;5069960;28;20825;-54
2022/09/26 08:13:59;;;;;;;11.20;2.72;;;15.60;99.90;;;;;;5071988;28;20954;-53
2022/09/26 08:16:24;;;;;;;7.70;2.60;;;15.70;99.90;;;;;;5072749;28;20397;-53
2022/09/26 08:18:51;;;;;;;7.45;2.80;;;15.70;99.90;;;;;;5071968;28;20463;-53
2022/09/26 08:21:17;;;;;;;10.07;2.90;;;15.50;99.90;;;;;;5072652;28;20739;-53
2022/09/26 08:23:44;;;;;;;7.47;2.70;;;15.40;99.90;;;;;;5070445;28;20396;-53
2022/09/26 08:26:09;;;;;;;9.38;2.75;;;15.70;99.90;;;;;;5072387;28;20391;-53
2022/09/26 08:28:36;;;;;;;9.47;3.33;;;15.90;17.50;;;;;;5071721;28;20412;-53
2022/09/26 08:31:03;;;;;;;7.45;2.42;;;16.20;1.00;;;;;;5072044;28;20407;-53
2022/09/26 08:33:34;;;;;;;7.00;2.72;;;16.60;1.00;;;;;;5072235;28;20396;-53
2022/09/26 08:36:14;;;;;;;7.70;2.75;;;16.30;99.90;;;;;;5072243;28;20383;-53
2022/09/26 08:38:40;;;;;;;8.05;3.03;;;16.20;99.90;;;;;;5071242;28;20384;-53
2022/09/26 08:41:43;;;;;;;7.10;2.87;;;16.30;99.90;;;;;;5073070;28;20387;-53
2022/09/26 08:44:27;;;;;;;8.13;2.60;;;16.50;99.90;;;;;;5072190;28;20384;-53
2022/09/26 08:47:01;;;;;;;8.23;2.80;;;16.90;99.90;;;;;;5071212;28;20871;-54
2022/09/26 08:49:54;;;;;;;7.60;2.70;;;18.30;70.60;;;;;;5072040;28;20878;-53
2022/09/26 08:52:26;;;;;;;7.87;2.30;;;20.00;1.00;;;;;;5072186;28;20384;-54
2022/09/26 08:54:55;;;;;;;8.15;2.40;;;20.00;1.00;;;;;;5071476;28;20406;-53
2022/09/26 08:57:38;;;;;;;6.90;2.20;;;21.30;99.90;;;;;;5072232;28;20467;-53
2022/09/26 09:00:23;;;;;;;6.40;2.30;;;21.60;99.90;;;;;;5072413;28;20407;-54
2022/09/26 09:03:09;;;;;;;6.78;2.10;;;21.70;99.90;;;;;;5071398;28;20726;-54
2022/09/26 09:05:39;;;;;;;6.40;2.30;;;22.50;99.90;;;;;;5071203;28;20562;-54
2022/09/26 09:08:21;;;;;;;7.63;2.50;;;22.90;99.90;;;;;;5071772;28;20792;-54
2022/09/26 09:11:13;;;;;;;9.30;2.60;;;23.50;99.90;;;;;;5071175;28;20375;-54
2022/09/26 09:14:02;;;;;;;7.07;3.95;;;24.30;99.90;;;;;;5071592;28;20470;-54
2022/09/26 09:16:50;;;;;;;7.35;4.45;;;24.50;99.90;;;;;;5071165;28;20400;-54
2022/09/26 09:19:35;;;;;;;7.20;3.90;;;23.80;99.90;;;;;;5071585;28;20447;-54
2022/09/26 09:22:08;;;;;;;7.40;2.90;;;22.70;99.90;;;;;;5071822;28;20368;-54
2022/09/26 09:24:50;;;;;;;7.93;3.90;;;22.80;99.90;;;;;;5070246;28;20733;-55
2022/09/26 09:27:33;;;;;;;8.52;3.53;;;24.00;99.90;;;;;;5071173;28;20380;-54
2022/09/26 09:30:19;;;;;;;6.60;3.40;;;23.20;99.90;;;;;;5071375;28;20404;-54
2022/09/26 09:32:55;;;;;;;6.90;3.58;;;24.00;99.90;;;;;;5070974;28;20384;-54
2022/09/26 09:35:43;;;;;;;6.80;3.05;;;23.80;99.90;;;;;;5071517;28;20459;-55
2022/09/26 09:38:18;;;;;;;8.15;3.63;;;23.90;99.90;;;;;;5070829;28;20868;-54
2022/09/26 09:41:24;;;;;;;7.22;4.10;;;24.60;99.90;;;;;;5070357;28;20456;-54
2022/09/26 09:43:55;;;;;;;7.30;3.13;;;24.90;99.90;;;;;;5051475;28;20399;-54
2022/09/26 09:46:34;;;;;;;6.70;3.38;;;23.80;99.90;;;;;;5071332;28;20388;-54
2022/09/26 09:49:16;;;;;;;7.65;3.20;;;24.30;99.90;;;;;;5070421;28;20376;-54
2022/09/26 09:51:50;;;;;;;6.50;3.40;;;24.10;99.90;;;;;;5071149;28;20376;-54
2022/09/26 09:54:36;;;;;;;6.63;3.80;;;24.60;99.90;;;;;;5070432;28;20403;-54
2022/09/26 09:57:11;;;;;;;7.50;4.32;;;25.00;99.90;;;;;;5071006;28;20376;-54
2022/09/26 10:00:00;;;;;;;6.72;4.10;;;24.80;99.90;;;;;;5069841;28;20388;-55
2022/09/26 10:03:06;;;;;;;6.28;3.00;;;24.30;99.90;;;;;;5070928;28;20445;-54
2022/09/26 10:05:37;;;;;;;6.00;2.00;;;22.50;99.90;;;;;;5053299;28;20490;-53
2022/09/26 10:08:14;;;;;;;6.90;2.25;;;21.20;99.90;;;;;;5070539;28;20410;-54
2022/09/26 10:10:54;;;;;;;5.80;2.00;;;21.10;99.90;;;;;;5069768;28;20844;-54
2022/09/26 10:13:24;;;;;;;5.75;1.90;;;21.20;99.90;;;;;;5070647;28;20768;-54
2022/09/26 10:16:03;;;;;;;6.10;1.80;;;21.70;99.90;;;;;;5070288;28;20418;-53
2022/09/26 10:18:30;;;;;;;5.30;1.70;;;21.40;99.90;;;;;;5070474;28;20380;-54
2022/09/26 10:21:07;;;;;;;6.80;1.80;;;22.30;99.90;;;;;;5069984;28;20394;-53
2022/09/26 10:23:38;;;;;;;6.73;1.93;;;22.00;99.90;;;;;;5070019;28;20380;-54
2022/09/26 10:26:06;;;;;;;5.60;1.80;;;20.90;99.90;;;;;;5070260;28;20606;-53
2022/09/26 10:28:41;;;;;;;6.30;2.00;;;21.80;99.90;;;;;;5070178;28;20546;-54
2022/09/26 10:31:09;;;;;;;7.40;1.90;;;21.70;99.90;;;;;;5069799;28;20400;-54
2022/09/26 10:33:42;;;;;;;6.40;1.65;;;22.70;99.90;;;;;;5068956;28;20854;-54
2022/09/26 10:36:20;;;;;;;6.55;1.58;;;23.30;99.90;;;;;;5070593;28;20380;-54
2022/09/26 10:41:56;;;;;;;5.00;1.45;;;22.70;99.90;;;;;;5045753;28;20383;-54
2022/09/26 10:44:22;;;;;;;6.70;1.65;;;22.50;99.90;;;;;;5070020;28;20376;-53
2022/09/26 10:46:51;;;;;;;5.68;1.70;;;22.30;99.90;;;;;;5069348;28;21021;-54
2022/09/26 10:49:22;;;;;;;5.65;1.90;;;21.90;99.90;;;;;;5070062;28;20384;-54
2022/09/26 10:51:56;;;;;;;5.80;1.80;;;22.20;99.90;;;;;;5069028;28;20776;-54
2022/09/26 10:54:31;;;;;;;6.88;1.70;;;22.40;99.90;;;;;;5070106;28;20407;-53
2022/09/26 10:56:57;;;;;;;7.15;1.80;;;21.20;99.90;;;;;;5069009;28;20451;-53
2022/09/26 10:59:26;;;;;;;7.10;1.67;;;19.50;99.90;;;;;;5069684;28;20388;-53
2022/09/26 11:01:58;;;;;;;4.95;1.20;;;18.80;99.90;;;;;;5069040;28;20384;-53
2022/09/26 11:07:29;;;;;;;8.70;1.55;;;19.50;99.90;;;;;;5069256;28;20952;-53
2022/09/26 11:10:03;;;;;;;5.20;1.58;;;20.50;99.90;;;;;;5069132;28;20368;-54
2022/09/26 11:12:32;;;;;;;6.80;1.70;;;20.00;99.90;;;;;;5069412;28;20375;-53
2022/09/26 11:15:09;;;;;;;7.00;1.65;;;19.70;99.90;;;;;;5068551;28;20471;-54
2022/09/26 11:17:44;;;;;;;5.05;1.50;;;19.30;99.90;;;;;;5069367;28;20384;-54
2022/09/26 11:20:55;;;;;;;5.83;1.57;;;18.90;99.90;;;;;;5069961;28;20388;-53
2022/09/26 11:23:55;;;;;;;5.20;1.20;;;19.10;99.90;;;;;;5065440;28;20395;-53
2022/09/26 11:26:56;;;;;;;5.10;1.20;;;19.20;99.90;;;;;;5069472;28;20860;-53
2022/09/26 11:29:54;;;;;;;6.97;1.55;;;19.80;99.90;;;;;;5069075;28;20416;-53
2022/09/26 11:32:32;;;;;;;5.20;1.42;;;20.10;99.90;;;;;;5069933;28;20449;-53
2022/09/26 11:35:01;;;;;;;5.07;1.38;;;19.70;99.90;;;;;;5068930;28;20403;-53
2022/09/26 11:37:36;;;;;;;6.38;1.15;;;19.40;99.90;;;;;;5069435;28;20422;-53
2022/09/26 11:40:22;;;;;;;4.93;1.20;;;19.50;99.90;;;;;;5069192;28;20422;-53
2022/09/26 11:43:24;;;;;;;6.50;1.30;;;19.80;99.90;;;;;;5054196;28;20479;-53
2022/09/26 11:46:14;;;;;;;5.20;1.17;;;19.90;99.90;;;;;;5069372;28;20376;-59
2022/09/26 11:49:09;;;;;;;5.90;1.30;;;19.30;99.90;;;;;;5072443;28;20383;-54
2022/09/26 11:51:48;;;;;;;5.10;1.23;;;18.70;99.90;;;;;;5072830;28;20384;-54
2022/09/26 11:54:16;;;;;;;5.20;1.20;;;18.20;99.90;;;;;;5072863;28;20403;-53
2022/09/26 11:56:51;;;;;;;11.20;1.70;;;17.30;99.90;;;;;;5072684;28;20383;-53
2022/09/26 11:59:51;;;;;;;5.85;1.10;;;16.50;1.00;;;;;;5073202;28;20418;-53
2022/09/26 12:02:50;;;;;;;6.28;1.25;;;15.40;1.00;;;;;;5073008;28;20388;-53
2022/09/26 12:05:30;;;;;;;5.80;0.90;;;15.40;1.00;;;;;;5073108;28;20391;-53
2022/09/26 12:08:14;;;;;;;4.75;0.80;;;15.00;99.90;;;;;;5072716;28;20382;-53
2022/09/26 12:11:00;;;;;;;4.30;0.60;;;15.00;99.90;;;;;;5072035;28;20395;-54
2022/09/26 12:13:51;;;;;;;5.40;0.77;;;15.30;99.90;;;;;;5057915;28;20427;-53
2022/09/26 12:16:53;;;;;;;5.18;0.90;;;15.40;1.00;;;;;;5073122;28;20403;-54
2022/09/26 12:19:30;;;;;;;5.07;1.00;;;15.30;1.00;;;;;;5072567;28;20419;-53
2022/09/26 12:22:27;;;;;;;5.30;0.80;;;15.50;99.90;;;;;;5072051;28;20748;-54
2022/09/26 12:25:06;;;;;;;4.70;1.00;;;16.00;1.00;;;;;;5072322;28;20868;-54
2022/09/26 12:27:58;;;;;;;5.20;0.98;;;16.50;1.00;;;;;;5072341;28;20427;-54
2022/09/26 12:30:28;;;;;;;5.05;1.00;;;16.80;1.00;;;;;;5072506;28;20779;-54
2022/09/26 12:33:28;;;;;;;5.27;1.60;;;17.20;1.00;;;;;;5071712;28;20391;-53
2022/09/26 12:36:22;;;;;;;4.93;0.90;;;17.30;1.00;;;;;;5071503;28;20712;-53
2022/09/26 12:39:02;;;;;;;5.00;0.90;;;17.10;1.00;;;;;;5071707;28;20470;-54
2022/09/26 12:41:41;;;;;;;4.80;1.00;;;17.20;1.00;;;;;;5071849;28;20379;-54
2022/09/26 12:44:36;;;;;;;5.50;1.30;;;17.20;1.00;;;;;;5071836;28;20380;-54
2022/09/26 12:47:32;;;;;;;5.00;1.10;;;17.30;1.00;;;;;;5071978;28;20429;-53
2022/09/26 12:50:39;;;;;;;5.50;1.20;;;17.20;1.00;;;;;;5071722;28;21090;-54
2022/09/26 12:53:30;;;;;;;5.20;1.35;;;17.10;1.00;;;;;;4990173;28;20506;-54
2022/09/26 12:56:16;;;;;;;6.45;1.20;;;17.10;1.00;;;;;;5033413;28;20415;-54
2022/09/26 12:59:03;;;;;;;6.70;1.30;;;17.30;1.00;;;;;;5071213;28;20376;-54
2022/09/26 13:01:57;;;;;;;5.40;1.20;;;17.20;1.00;;;;;;5072182;28;20391;-54
2022/09/26 13:04:34;;;;;;;6.20;1.30;;;17.20;99.90;;;;;;5071883;28;20392;-54
2022/09/26 13:07:09;;;;;;;5.55;1.23;;;17.20;99.90;;;;;;5071234;28;20412;-54
2022/09/26 13:09:51;;;;;;;4.83;1.10;;;17.30;99.90;;;;;;5071630;28;20795;-54
2022/09/26 13:12:37;;;;;;;10.35;1.08;;;17.20;99.90;;;;;;5071761;28;20371;-53
2022/09/26 13:15:27;;;;;;;5.10;1.02;;;16.70;99.90;;;;;;5071212;28;20429;-54
2022/09/26 13:17:59;;;;;;;5.40;1.10;;;16.70;99.90;;;;;;5071437;28;20880;-54
2022/09/26 13:20:39;;;;;;;6.30;1.45;;;16.70;99.90;;;;;;5071629;28;20367;-53
2022/09/26 13:23:30;;;;;;;5.78;1.20;;;16.60;99.90;;;;;;5071465;28;20776;-53
2022/09/26 13:26:05;;;;;;;5.10;1.00;;;16.50;99.90;;;;;;5071398;28;20384;-53
2022/09/26 13:28:39;;;;;;;5.20;1.00;;;16.30;99.90;;;;;;5071538;28;20430;-54
2022/09/26 13:31:15;;;;;;;5.50;0.80;;;16.10;99.90;;;;;;5053332;28;20469;-53